sensor_id;sensor_type;location;lat;lon;timestamp;pressure;altitude;pressure_sealevel;temperature;humidity
63946;BME280;50122;56.330;43.838;2022-10-26T00:01:14;101576.72;;;2.12;75.19
63946;BME280;50122;56.330;43.838;2022-10-26T00:03:43;101578.50;;;2.13;75.27
63946;BME280;50122;56.330;43.838;2022-10-26T00:06:13;101573.25;;;2.11;73.53
63946;BME280;50122;56.330;43.838;2022-10-26T00:08:40;101594.22;;;2.20;73.57
63946;BME280;50122;56.330;43.838;2022-10-26T00:11:08;101593.28;;;2.15;73.70
63946;BME280;50122;56.330;43.838;2022-10-26T00:13:37;101573.03;;;1.93;74.53
63946;BME280;50122;56.330;43.838;2022-10-26T00:16:10;101542.41;;;1.76;73.92
63946;BME280;50122;56.330;43.838;2022-10-26T00:18:39;101596.69;;;2.08;74.65
63946;BME280;50122;56.330;43.838;2022-10-26T00:21:06;101575.69;;;1.97;74.83
63946;BME280;50122;56.330;43.838;2022-10-26T00:23:34;101598.41;;;2.09;74.96
63946;BME280;50122;56.330;43.838;2022-10-26T00:26:02;101562.53;;;1.86;74.17
63946;BME280;50122;56.330;43.838;2022-10-26T00:28:29;101587.94;;;2.03;74.59
63946;BME280;50122;56.330;43.838;2022-10-26T00:31:01;101600.19;;;2.12;74.96
63946;BME280;50122;56.330;43.838;2022-10-26T00:33:29;101601.91;;;2.08;73.86
63946;BME280;50122;56.330;43.838;2022-10-26T00:35:56;101605.41;;;2.10;74.00
63946;BME280;50122;56.330;43.838;2022-10-26T00:38:23;101605.38;;;2.08;73.89
63946;BME280;50122;56.330;43.838;2022-10-26T00:40:49;101603.63;;;2.07;73.87
63946;BME280;50122;56.330;43.838;2022-10-26T00:45:46;101612.28;;;2.06;73.78
63946;BME280;50122;56.330;43.838;2022-10-26T00:48:22;101579.88;;;1.84;73.59
63946;BME280;50122;56.330;43.838;2022-10-26T00:50:51;101610.44;;;1.98;72.82
63946;BME280;50122;56.330;43.838;2022-10-26T00:53:20;101608.78;;;2.03;73.49
63946;BME280;50122;56.330;43.838;2022-10-26T00:55:48;101607.13;;;2.08;73.16
63946;BME280;50122;56.330;43.838;2022-10-26T00:58:16;101617.59;;;2.11;72.69
63946;BME280;50122;56.330;43.838;2022-10-26T01:00:44;101586.91;;;1.91;72.85
63946;BME280;50122;56.330;43.838;2022-10-26T01:03:11;101614.88;;;2.05;72.69
63946;BME280;50122;56.330;43.838;2022-10-26T01:05:41;101622.88;;;2.17;72.40
63946;BME280;50122;56.330;43.838;2022-10-26T01:08:09;101593.97;;;1.99;72.76
63946;BME280;50122;56.330;43.838;2022-10-26T01:10:37;101605.34;;;2.04;73.10
63946;BME280;50122;56.330;43.838;2022-10-26T01:13:05;101580.84;;;1.93;73.44
63946;BME280;50122;56.330;43.838;2022-10-26T01:27:22;101621.81;;;2.03;73.59
63946;BME280;50122;56.330;43.838;2022-10-26T01:32:31;101625.28;;;2.03;73.83
63946;BME280;50122;56.330;43.838;2022-10-26T01:35:16;101620.03;;;2.00;73.99
63946;BME280;50122;56.330;43.838;2022-10-26T01:37:50;101609.50;;;1.91;74.17
63946;BME280;50122;56.330;43.838;2022-10-26T01:40:53;101617.31;;;1.88;74.06
63946;BME280;50122;56.330;43.838;2022-10-26T01:43:18;101640.84;;;1.96;74.06
63946;BME280;50122;56.330;43.838;2022-10-26T01:45:46;101587.38;;;1.61;74.63
63946;BME280;50122;56.330;43.838;2022-10-26T01:48:17;101590.22;;;1.78;74.69
63946;BME280;50122;56.330;43.838;2022-10-26T01:50:49;101633.94;;;1.99;74.98
63946;BME280;50122;56.330;43.838;2022-10-26T01:53:17;101618.97;;;1.84;75.26
63946;BME280;50122;56.330;43.838;2022-10-26T01:55:52;101636.50;;;1.96;75.20
63946;BME280;50122;56.330;43.838;2022-10-26T01:58:22;101642.56;;;1.94;75.36
63946;BME280;50122;56.330;43.838;2022-10-26T02:00:59;101641.66;;;1.91;75.10
63946;BME280;50122;56.330;43.838;2022-10-26T02:03:39;101628.50;;;1.82;75.29
63946;BME280;50122;56.330;43.838;2022-10-26T02:06:25;101618.94;;;1.81;75.77
63946;BME280;50122;56.330;43.838;2022-10-26T02:09:02;101630.25;;;1.83;75.53
63946;BME280;50122;56.330;43.838;2022-10-26T02:11:37;101645.13;;;1.90;75.36
63946;BME280;50122;56.330;43.838;2022-10-26T02:14:17;101646.84;;;1.88;72.57
63946;BME280;50122;56.330;43.838;2022-10-26T02:16:56;101652.94;;;1.92;71.33
63946;BME280;50122;56.330;43.838;2022-10-26T02:19:53;101647.88;;;2.01;70.55
63946;BME280;50122;56.330;43.838;2022-10-26T02:22:27;101646.13;;;2.02;69.79
63946;BME280;50122;56.330;43.838;2022-10-26T02:24:59;101661.88;;;2.08;67.59
63946;BME280;50122;56.330;43.838;2022-10-26T02:27:30;101661.06;;;2.14;67.24
63946;BME280;50122;56.330;43.838;2022-10-26T02:29:59;101646.19;;;2.05;66.63
63946;BME280;50122;56.330;43.838;2022-10-26T02:32:29;101675.84;;;2.13;66.77
63946;BME280;50122;56.330;43.838;2022-10-26T02:34:58;101658.47;;;2.15;66.72
63946;BME280;50122;56.330;43.838;2022-10-26T02:37:28;101663.75;;;2.18;67.67
63946;BME280;50122;56.330;43.838;2022-10-26T02:39:56;101648.88;;;2.10;67.81
63946;BME280;50122;56.330;43.838;2022-10-26T02:42:25;101646.19;;;2.06;67.97
63946;BME280;50122;56.330;43.838;2022-10-26T02:45:02;101672.44;;;2.19;68.27
63946;BME280;50122;56.330;43.838;2022-10-26T09:54:35;101826.63;;;3.88;53.91
63946;BME280;50122;56.330;43.838;2022-10-26T09:57:03;101823.06;;;3.82;54.59
63946;BME280;50122;56.330;43.838;2022-10-26T09:59:33;101824.03;;;3.91;54.93
63946;BME280;50122;56.330;43.838;2022-10-26T10:02:00;101829.38;;;4.02;54.54
63946;BME280;50122;56.330;43.838;2022-10-26T10:04:30;101825.03;;;4.08;55.22
63946;BME280;50122;56.330;43.838;2022-10-26T10:09:26;101827.78;;;4.27;54.60
63946;BME280;50122;56.330;43.838;2022-10-26T10:11:58;101816.34;;;4.11;53.82
63946;BME280;50122;56.330;43.838;2022-10-26T10:14:38;101827.75;;;4.21;54.04
63946;BME280;50122;56.330;43.838;2022-10-26T10:17:14;101828.66;;;4.29;53.83
63946;BME280;50122;56.330;43.838;2022-10-26T10:19:44;101835.59;;;4.19;53.68
63946;BME280;50122;56.330;43.838;2022-10-26T10:24:42;101829.50;;;4.22;53.92
63946;BME280;50122;56.330;43.838;2022-10-26T10:27:18;101824.25;;;4.23;53.11
63946;BME280;50122;56.330;43.838;2022-10-26T10:29:50;101835.59;;;4.16;53.52
63946;BME280;50122;56.330;43.838;2022-10-26T10:32:20;101839.94;;;4.17;53.72
63946;BME280;50122;56.330;43.838;2022-10-26T10:34:49;101832.06;;;4.14;53.67
63946;BME280;50122;56.330;43.838;2022-10-26T10:37:38;101823.28;;;4.07;53.31
63946;BME280;50122;56.330;43.838;2022-10-26T10:40:20;101828.59;;;4.18;53.58
63946;BME280;50122;56.330;43.838;2022-10-26T10:42:49;101826.03;;;4.23;53.61
63946;BME280;50122;56.330;43.838;2022-10-26T10:50:59;101826.88;;;4.23;53.30
63946;BME280;50122;56.330;43.838;2022-10-26T10:53:42;101838.25;;;4.22;53.41
63946;BME280;50122;56.330;43.838;2022-10-26T10:56:41;101845.19;;;4.23;52.98
63946;BME280;50122;56.330;43.838;2022-10-26T10:59:27;101839.97;;;4.23;53.14
63946;BME280;50122;56.330;43.838;2022-10-26T11:08:03;101842.63;;;4.26;52.87
63946;BME280;50122;56.330;43.838;2022-10-26T11:10:36;101837.25;;;4.06;52.72
63946;BME280;50122;56.330;43.838;2022-10-26T11:13:25;101844.13;;;3.96;53.28
63946;BME280;50122;56.330;43.838;2022-10-26T11:15:59;101835.41;;;3.94;53.88
63946;BME280;50122;56.330;43.838;2022-10-26T11:18:36;101823.03;;;3.75;54.06
63946;BME280;50122;56.330;43.838;2022-10-26T11:21:18;101837.91;;;3.83;54.08
63946;BME280;50122;56.330;43.838;2022-10-26T11:23:53;101826.50;;;3.77;53.93
63946;BME280;50122;56.330;43.838;2022-10-26T11:26:35;101837.88;;;3.79;54.16
63946;BME280;50122;56.330;43.838;2022-10-26T11:29:21;101830.94;;;3.82;54.25
63946;BME280;50122;56.330;43.838;2022-10-26T11:32:00;101823.16;;;3.90;54.22
63946;BME280;50122;56.330;43.838;2022-10-26T11:37:24;101812.50;;;3.69;54.42
63946;BME280;50122;56.330;43.838;2022-10-26T11:40:22;101828.38;;;3.87;54.02
63946;BME280;50122;56.330;43.838;2022-10-26T11:43:02;101813.53;;;3.86;54.42
63946;BME280;50122;56.330;43.838;2022-10-26T11:45:38;101824.88;;;3.88;53.98
63946;BME280;50122;56.330;43.838;2022-10-26T11:48:22;101823.97;;;3.81;54.33
63946;BME280;50122;56.330;43.838;2022-10-26T11:50:53;101811.72;;;3.77;53.90
63946;BME280;50122;56.330;43.838;2022-10-26T11:53:25;101781.91;;;3.57;54.58
63946;BME280;50122;56.330;43.838;2022-10-26T11:55:57;101809.13;;;3.82;54.21
63946;BME280;50122;56.330;43.838;2022-10-26T11:58:26;101816.97;;;3.80;54.40
63946;BME280;50122;56.330;43.838;2022-10-26T12:01:00;101811.75;;;3.82;54.55
63946;BME280;50122;56.330;43.838;2022-10-26T12:03:31;101801.28;;;3.79;54.54
63946;BME280;50122;56.330;43.838;2022-10-26T12:05:58;101799.53;;;3.82;54.29
63946;BME280;50122;56.330;43.838;2022-10-26T12:08:32;101796.94;;;3.84;54.40
63946;BME280;50122;56.330;43.838;2022-10-26T12:14:00;101808.47;;;4.08;54.53
63946;BME280;50122;56.330;43.838;2022-10-26T12:16:45;101799.81;;;4.15;54.58
63946;BME280;50122;56.330;43.838;2022-10-26T12:19:19;101797.22;;;4.20;54.67
63946;BME280;50122;56.330;43.838;2022-10-26T12:21:49;101805.09;;;4.24;53.77
63946;BME280;50122;56.330;43.838;2022-10-26T12:26:54;101812.75;;;3.99;53.46
63946;BME280;50122;56.330;43.838;2022-10-26T12:29:28;101811.00;;;3.98;53.63
63946;BME280;50122;56.330;43.838;2022-10-26T12:31:57;101793.47;;;3.83;53.46
63946;BME280;50122;56.330;43.838;2022-10-26T12:37:34;101807.50;;;3.93;53.89
63946;BME280;50122;56.330;43.838;2022-10-26T12:45:43;101785.53;;;3.74;54.25
63946;BME280;50122;56.330;43.838;2022-10-26T12:48:24;101799.44;;;3.70;54.87
63946;BME280;50122;56.330;43.838;2022-10-26T12:56:49;101794.06;;;3.53;54.56
63946;BME280;50122;56.330;43.838;2022-10-26T13:04:47;101786.00;;;4.41;52.72
63946;BME280;50122;56.330;43.838;2022-10-26T13:07:20;101777.34;;;4.56;52.39
63946;BME280;50122;56.330;43.838;2022-10-26T13:09:55;101761.50;;;4.28;52.43
63946;BME280;50122;56.330;43.838;2022-10-26T13:12:24;101776.16;;;4.03;52.63
63946;BME280;50122;56.330;43.838;2022-10-26T13:15:01;101776.88;;;3.80;53.69
63946;BME280;50122;56.330;43.838;2022-10-26T13:17:30;101778.44;;;3.62;54.43
63946;BME280;50122;56.330;43.838;2022-10-26T13:20:03;101786.03;;;3.33;54.82
63946;BME280;50122;56.330;43.838;2022-10-26T13:22:31;101779.66;;;3.05;55.01
63946;BME280;50122;56.330;43.838;2022-10-26T13:25:00;101790.66;;;2.81;55.56
63946;BME280;50122;56.330;43.838;2022-10-26T13:32:36;101788.81;;;2.11;56.77
63946;BME280;50122;56.330;43.838;2022-10-26T13:35:04;101787.66;;;1.90;57.78
63946;BME280;50122;56.330;43.838;2022-10-26T13:37:36;101793.53;;;1.77;58.67
63946;BME280;50122;56.330;43.838;2022-10-26T13:40:30;101792.38;;;1.61;58.60
63946;BME280;50122;56.330;43.838;2022-10-26T13:43:01;101787.72;;;1.44;59.26
63946;BME280;50122;56.330;43.838;2022-10-26T13:45:31;101756.75;;;1.11;59.85
63946;BME280;50122;56.330;43.838;2022-10-26T13:48:05;101784.56;;;1.13;60.40
63946;BME280;50122;56.330;43.838;2022-10-26T13:50:48;101785.06;;;0.95;60.82
63946;BME280;50122;56.330;43.838;2022-10-26T13:53:40;101787.44;;;0.83;60.93
63946;BME280;50122;56.330;43.838;2022-10-26T13:56:27;101790.44;;;0.60;61.78
63946;BME280;50122;56.330;43.838;2022-10-26T13:59:05;101790.31;;;0.54;62.03
63946;BME280;50122;56.330;43.838;2022-10-26T14:01:35;101792.72;;;0.45;62.84
63946;BME280;50122;56.330;43.838;2022-10-26T14:04:18;101772.34;;;0.25;63.01
63946;BME280;50122;56.330;43.838;2022-10-26T14:06:52;101782.59;;;0.17;63.79
63946;BME280;50122;56.330;43.838;2022-10-26T14:09:21;101790.22;;;0.11;64.27
63946;BME280;50122;56.330;43.838;2022-10-26T14:11:50;101801.28;;;0.03;64.21
63946;BME280;50122;56.330;43.838;2022-10-26T14:14:25;101801.06;;;-0.07;65.00
63946;BME280;50122;56.330;43.838;2022-10-26T14:16:53;101805.34;;;-0.09;65.14
63946;BME280;50122;56.330;43.838;2022-10-26T14:19:26;101796.47;;;-0.19;65.60
63946;BME280;50122;56.330;43.838;2022-10-26T14:21:55;101791.81;;;-0.30;65.88
63946;BME280;50122;56.330;43.838;2022-10-26T14:24:26;101799.47;;;-0.37;66.14
63946;BME280;50122;56.330;43.838;2022-10-26T14:27:22;101795.97;;;-0.39;66.62
63946;BME280;50122;56.330;43.838;2022-10-26T14:29:51;101792.25;;;-0.48;67.26
63946;BME280;50122;56.330;43.838;2022-10-26T14:32:38;101805.91;;;-0.56;66.98
63946;BME280;50122;56.330;43.838;2022-10-26T14:35:10;101794.63;;;-0.58;67.61
63946;BME280;50122;56.330;43.838;2022-10-26T14:37:50;101797.06;;;-0.62;67.90
63946;BME280;50122;56.330;43.838;2022-10-26T14:40:22;101792.47;;;-0.73;67.61
63946;BME280;50122;56.330;43.838;2022-10-26T14:42:52;101790.84;;;-0.69;68.18
63946;BME280;50122;56.330;43.838;2022-10-26T14:48:19;101789.75;;;-0.77;68.77
63946;BME280;50122;56.330;43.838;2022-10-26T14:51:04;101796.53;;;-0.82;69.45
63946;BME280;50122;56.330;43.838;2022-10-26T14:53:39;101792.97;;;-0.86;69.40
63946;BME280;50122;56.330;43.838;2022-10-26T15:01:52;101798.06;;;-0.91;69.92
63946;BME280;50122;56.330;43.838;2022-10-26T15:04:35;101800.56;;;-0.94;69.59
63946;BME280;50122;56.330;43.838;2022-10-26T15:09:50;101798.63;;;-1.01;70.37
63946;BME280;50122;56.330;43.838;2022-10-26T15:14:53;101781.81;;;-1.15;70.45
63946;BME280;50122;56.330;43.838;2022-10-26T15:17:34;101796.72;;;-1.08;70.62
63946;BME280;50122;56.330;43.838;2022-10-26T15:20:06;101792.31;;;-1.11;71.13
63946;BME280;50122;56.330;43.838;2022-10-26T15:22:34;101803.50;;;-1.12;71.36
63946;BME280;50122;56.330;43.838;2022-10-26T15:25:03;101798.28;;;-1.13;71.42
63946;BME280;50122;56.330;43.838;2022-10-26T15:27:31;101784.34;;;-1.17;71.41
63946;BME280;50122;56.330;43.838;2022-10-26T15:30:12;101793.78;;;-1.19;71.71
63946;BME280;50122;56.330;43.838;2022-10-26T15:32:42;101773.56;;;-1.31;72.09
63946;BME280;50122;56.330;43.838;2022-10-26T15:37:46;101776.94;;;-1.33;72.59
63946;BME280;50122;56.330;43.838;2022-10-26T15:40:13;101791.72;;;-1.31;72.31
63946;BME280;50122;56.330;43.838;2022-10-26T15:42:41;101780.19;;;-1.41;72.89
63946;BME280;50122;56.330;43.838;2022-10-26T15:45:17;101781.09;;;-1.40;72.98
63946;BME280;50122;56.330;43.838;2022-10-26T15:47:46;101788.06;;;-1.37;72.80
63946;BME280;50122;56.330;43.838;2022-10-26T15:50:15;101786.16;;;-1.43;72.76
63946;BME280;50122;56.330;43.838;2022-10-26T15:52:42;101800.16;;;-1.38;73.67
63946;BME280;50122;56.330;43.838;2022-10-26T15:55:15;101788.94;;;-1.38;73.74
63946;BME280;50122;56.330;43.838;2022-10-26T15:57:42;101793.94;;;-1.43;73.61
63946;BME280;50122;56.330;43.838;2022-10-26T16:00:14;101786.16;;;-1.43;73.88
63946;BME280;50122;56.330;43.838;2022-10-26T16:02:43;101782.50;;;-1.51;74.17
63946;BME280;50122;56.330;43.838;2022-10-26T16:05:15;101796.41;;;-1.48;74.39
63946;BME280;50122;56.330;43.838;2022-10-26T16:07:43;101775.41;;;-1.57;74.38
63946;BME280;50122;56.330;43.838;2022-10-26T16:10:13;101781.47;;;-1.57;74.15
63946;BME280;50122;56.330;43.838;2022-10-26T16:12:42;101779.50;;;-1.64;74.19
63946;BME280;50122;56.330;43.838;2022-10-26T16:15:18;101782.09;;;-1.64;74.52
63946;BME280;50122;56.330;43.838;2022-10-26T16:17:46;101789.97;;;-1.61;74.60
63946;BME280;50122;56.330;43.838;2022-10-26T16:20:23;101789.94;;;-1.62;75.36
63946;BME280;50122;56.330;43.838;2022-10-26T16:22:52;101778.56;;;-1.67;74.64
63946;BME280;50122;56.330;43.838;2022-10-26T16:25:24;101779.94;;;-1.79;74.83
63946;BME280;50122;56.330;43.838;2022-10-26T16:27:52;101779.03;;;-1.79;75.11
63946;BME280;50122;56.330;43.838;2022-10-26T16:30:20;101791.22;;;-1.77;75.79
63946;BME280;50122;56.330;43.838;2022-10-26T16:32:52;101782.41;;;-1.83;75.56
63946;BME280;50122;56.330;43.838;2022-10-26T16:35:19;101776.34;;;-1.82;75.72
63946;BME280;50122;56.330;43.838;2022-10-26T16:37:45;101771.09;;;-1.85;76.49
63946;BME280;50122;56.330;43.838;2022-10-26T16:40:12;101773.84;;;-1.79;76.10
63946;BME280;50122;56.330;43.838;2022-10-26T16:42:39;101781.84;;;-1.73;76.11
63946;BME280;50122;56.330;43.838;2022-10-26T16:45:13;101786.13;;;-1.73;76.70
63946;BME280;50122;56.330;43.838;2022-10-26T16:47:40;101771.25;;;-1.79;76.00
63946;BME280;50122;56.330;43.838;2022-10-26T16:50:11;101775.81;;;-1.72;76.52
63946;BME280;50122;56.330;43.838;2022-10-26T16:52:39;101771.47;;;-1.73;76.81
63946;BME280;50122;56.330;43.838;2022-10-26T16:55:07;101754.16;;;-1.74;76.84
63946;BME280;50122;56.330;43.838;2022-10-26T16:57:34;101750.97;;;-1.65;76.56
63946;BME280;50122;56.330;43.838;2022-10-26T17:00:03;101766.84;;;-1.54;76.36
63946;BME280;50122;56.330;43.838;2022-10-26T17:02:30;101761.06;;;-1.46;76.41
63946;BME280;50122;56.330;43.838;2022-10-26T17:04:57;101751.63;;;-1.42;76.59
63946;BME280;50122;56.330;43.838;2022-10-26T17:07:29;101757.19;;;-1.30;76.05
63946;BME280;50122;56.330;43.838;2022-10-26T17:09:56;101758.09;;;-1.28;75.46
63946;BME280;50122;56.330;43.838;2022-10-26T17:12:22;101745.81;;;-1.33;75.27
63946;BME280;50122;56.330;43.838;2022-10-26T17:14:49;101760.66;;;-1.29;74.97
63946;BME280;50122;56.330;43.838;2022-10-26T17:17:16;101748.53;;;-1.29;75.00
63946;BME280;50122;56.330;43.838;2022-10-26T17:19:43;101759.16;;;-1.21;75.43
63946;BME280;50122;56.330;43.838;2022-10-26T17:22:09;101749.69;;;-1.19;75.43
63946;BME280;50122;56.330;43.838;2022-10-26T17:24:36;101753.22;;;-1.17;74.91
63946;BME280;50122;56.330;43.838;2022-10-26T17:27:03;101739.31;;;-1.19;75.41
63946;BME280;50122;56.330;43.838;2022-10-26T17:29:35;101749.84;;;-1.13;74.43
63946;BME280;50122;56.330;43.838;2022-10-26T17:32:27;101747.25;;;-1.13;74.52
63946;BME280;50122;56.330;43.838;2022-10-26T17:34:54;101740.25;;;-1.17;74.72
63946;BME280;50122;56.330;43.838;2022-10-26T17:37:27;101745.47;;;-1.15;74.57
63946;BME280;50122;56.330;43.838;2022-10-26T17:39:58;101748.94;;;-1.15;74.68
63946;BME280;50122;56.330;43.838;2022-10-26T17:45:26;101747.16;;;-1.16;74.65
63946;BME280;50122;56.330;43.838;2022-10-26T17:47:52;101747.25;;;-1.13;74.15
63946;BME280;50122;56.330;43.838;2022-10-26T17:50:19;101748.28;;;-1.08;74.56
63946;BME280;50122;56.330;43.838;2022-10-26T17:52:46;101747.44;;;-1.07;74.14
63946;BME280;50122;56.330;43.838;2022-10-26T17:55:13;101748.31;;;-1.06;74.20
63946;BME280;50122;56.330;43.838;2022-10-26T17:57:39;101732.63;;;-1.11;74.27
63946;BME280;50122;56.330;43.838;2022-10-26T18:00:06;101743.09;;;-1.08;73.85
63946;BME280;50122;56.330;43.838;2022-10-26T18:02:33;101737.00;;;-1.10;74.38
63946;BME280;50122;56.330;43.838;2022-10-26T18:05:06;101736.84;;;-1.14;74.07
63946;BME280;50122;56.330;43.838;2022-10-26T18:07:33;101738.66;;;-1.12;74.20
63946;BME280;50122;56.330;43.838;2022-10-26T18:10:01;101724.75;;;-1.14;73.45
63946;BME280;50122;56.330;43.838;2022-10-26T18:12:47;101720.41;;;-1.15;74.26
63946;BME280;50122;56.330;43.838;2022-10-26T18:15:15;101739.66;;;-1.07;73.87
63946;BME280;50122;56.330;43.838;2022-10-26T18:17:41;101730.00;;;-1.12;73.92
63946;BME280;50122;56.330;43.838;2022-10-26T18:20:10;101739.69;;;-1.05;73.82
63946;BME280;50122;56.330;43.838;2022-10-26T18:22:43;101740.56;;;-1.05;73.66
63946;BME280;50122;56.330;43.838;2022-10-26T18:25:25;101738.75;;;-1.07;74.07
63946;BME280;50122;56.330;43.838;2022-10-26T18:27:52;101739.75;;;-1.03;74.15
63946;BME280;50122;56.330;43.838;2022-10-26T18:30:20;101744.00;;;-1.06;73.85
63946;BME280;50122;56.330;43.838;2022-10-26T18:32:50;101735.19;;;-1.12;74.03
63946;BME280;50122;56.330;43.838;2022-10-26T18:35:20;101738.59;;;-1.13;74.08
63946;BME280;50122;56.330;43.838;2022-10-26T18:37:46;101742.84;;;-1.17;74.16
63946;BME280;50122;56.330;43.838;2022-10-26T18:40:14;101740.13;;;-1.20;74.08
63946;BME280;50122;56.330;43.838;2022-10-26T18:42:41;101744.53;;;-1.17;74.20
63946;BME280;50122;56.330;43.838;2022-10-26T18:45:07;101744.38;;;-1.24;74.21
63946;BME280;50122;56.330;43.838;2022-10-26T18:47:34;101737.22;;;-1.32;73.97
63946;BME280;50122;56.330;43.838;2022-10-26T18:50:01;101741.69;;;-1.27;74.71
63946;BME280;50122;56.330;43.838;2022-10-26T18:52:27;101743.56;;;-1.23;74.63
63946;BME280;50122;56.330;43.838;2022-10-26T18:54:56;101743.56;;;-1.23;74.18
63946;BME280;50122;56.330;43.838;2022-10-26T18:57:23;101755.63;;;-1.23;74.28
63946;BME280;50122;56.330;43.838;2022-10-26T18:59:54;101741.53;;;-1.33;74.53
63946;BME280;50122;56.330;43.838;2022-10-26T19:02:20;101739.69;;;-1.37;74.72
63946;BME280;50122;56.330;43.838;2022-10-26T19:04:49;101742.31;;;-1.35;75.12
63946;BME280;50122;56.330;43.838;2022-10-26T19:07:18;101734.25;;;-1.45;75.36
63946;BME280;50122;56.330;43.838;2022-10-26T19:09:45;101739.66;;;-1.38;75.76
63946;BME280;50122;56.330;43.838;2022-10-26T19:12:12;101740.44;;;-1.41;75.19
63946;BME280;50122;56.330;43.838;2022-10-26T19:14:38;101743.16;;;-1.36;75.18
63946;BME280;50122;56.330;43.838;2022-10-26T19:17:05;101734.34;;;-1.42;75.27
63946;BME280;50122;56.330;43.838;2022-10-26T19:19:32;101729.88;;;-1.47;75.58
63946;BME280;50122;56.330;43.838;2022-10-26T19:21:59;101725.53;;;-1.48;75.77
63946;BME280;50122;56.330;43.838;2022-10-26T19:24:26;101731.72;;;-1.43;75.46
63946;BME280;50122;56.330;43.838;2022-10-26T19:26:53;101727.28;;;-1.47;75.33
63946;BME280;50122;56.330;43.838;2022-10-26T19:29:19;101743.22;;;-1.33;75.71
63946;BME280;50122;56.330;43.838;2022-10-26T19:31:49;101741.53;;;-1.33;75.08
63946;BME280;50122;56.330;43.838;2022-10-26T19:34:17;101744.19;;;-1.31;75.02
63946;BME280;50122;56.330;43.838;2022-10-26T19:36:44;101733.69;;;-1.34;75.12
63946;BME280;50122;56.330;43.838;2022-10-26T19:39:14;101731.81;;;-1.40;75.77
63946;BME280;50122;56.330;43.838;2022-10-26T19:41:41;101720.25;;;-1.51;75.46
63946;BME280;50122;56.330;43.838;2022-10-26T19:44:09;101739.66;;;-1.38;75.96
63946;BME280;50122;56.330;43.838;2022-10-26T19:46:36;101737.00;;;-1.40;76.25
63946;BME280;50122;56.330;43.838;2022-10-26T19:49:03;101732.69;;;-1.40;76.30
63946;BME280;50122;56.330;43.838;2022-10-26T19:51:31;101719.59;;;-1.44;76.22
63946;BME280;50122;56.330;43.838;2022-10-26T19:53:57;101738.00;;;-1.35;76.35
63946;BME280;50122;56.330;43.838;2022-10-26T19:56:30;101727.47;;;-1.41;76.09
63946;BME280;50122;56.330;43.838;2022-10-26T19:58:56;101726.69;;;-1.38;76.34
63946;BME280;50122;56.330;43.838;2022-10-26T20:01:23;101726.69;;;-1.38;75.75
63946;BME280;50122;56.330;43.838;2022-10-26T20:03:50;101731.94;;;-1.35;76.39
63946;BME280;50122;56.330;43.838;2022-10-26T20:06:17;101743.16;;;-1.36;76.08
63946;BME280;50122;56.330;43.838;2022-10-26T20:08:46;101728.41;;;-1.37;76.12
63946;BME280;50122;56.330;43.838;2022-10-26T20:11:14;101729.31;;;-1.37;76.26
63946;BME280;50122;56.330;43.838;2022-10-26T20:13:43;101731.00;;;-1.37;76.03
63946;BME280;50122;56.330;43.838;2022-10-26T20:16:11;101731.91;;;-1.37;76.42
63946;BME280;50122;56.330;43.838;2022-10-26T20:18:39;101699.34;;;-1.56;76.41
63946;BME280;50122;56.330;43.838;2022-10-26T20:21:14;101727.41;;;-1.43;75.77
63946;BME280;50122;56.330;43.838;2022-10-26T20:23:42;101730.06;;;-1.41;76.20
63946;BME280;50122;56.330;43.838;2022-10-26T20:26:09;101715.19;;;-1.47;76.52
63946;BME280;50122;56.330;43.838;2022-10-26T20:28:45;101729.06;;;-1.45;76.52
63946;BME280;50122;56.330;43.838;2022-10-26T20:31:12;101722.13;;;-1.47;76.73
63946;BME280;50122;56.330;43.838;2022-10-26T20:33:39;101716.66;;;-1.57;76.10
63946;BME280;50122;56.330;43.838;2022-10-26T20:36:06;101709.84;;;-1.53;76.39
63946;BME280;50122;56.330;43.838;2022-10-26T20:38:33;101679.91;;;-1.72;77.08
63946;BME280;50122;56.330;43.838;2022-10-26T20:41:00;101722.13;;;-1.47;76.64
63946;BME280;50122;56.330;43.838;2022-10-26T20:43:37;101713.25;;;-1.54;76.52
63946;BME280;50122;56.330;43.838;2022-10-26T20:46:08;101720.22;;;-1.53;76.89
63946;BME280;50122;56.330;43.838;2022-10-26T20:48:35;101723.75;;;-1.49;77.04
63946;BME280;50122;56.330;43.838;2022-10-26T20:51:14;101723.69;;;-1.52;77.04
63946;BME280;50122;56.330;43.838;2022-10-26T20:53:50;101718.44;;;-1.54;76.74
63946;BME280;50122;56.330;43.838;2022-10-26T20:56:23;101724.50;;;-1.53;76.88
63946;BME280;50122;56.330;43.838;2022-10-26T20:58:55;101718.41;;;-1.55;77.24
63946;BME280;50122;56.330;43.838;2022-10-26T21:01:28;101713.13;;;-1.59;77.29
63946;BME280;50122;56.330;43.838;2022-10-26T21:03:58;101722.69;;;-1.56;76.78
63946;BME280;50122;56.330;43.838;2022-10-26T21:06:25;101715.69;;;-1.60;77.19
63946;BME280;50122;56.330;43.838;2022-10-26T21:08:54;101720.09;;;-1.56;77.27
63946;BME280;50122;56.330;43.838;2022-10-26T21:11:23;101717.59;;;-1.54;77.42
63946;BME280;50122;56.330;43.838;2022-10-26T21:13:52;101717.66;;;-1.51;77.49
63946;BME280;50122;56.330;43.838;2022-10-26T21:16:19;101716.81;;;-1.50;77.54
63946;BME280;50122;56.330;43.838;2022-10-26T21:18:51;101711.63;;;-1.50;76.91
63946;BME280;50122;56.330;43.838;2022-10-26T21:21:17;101691.47;;;-1.61;76.77
63946;BME280;50122;56.330;43.838;2022-10-26T21:23:44;101702.81;;;-1.57;76.94
63946;BME280;50122;56.330;43.838;2022-10-26T21:26:11;101722.13;;;-1.47;77.29
63946;BME280;50122;56.330;43.838;2022-10-26T21:28:39;101705.69;;;-1.46;77.16
63946;BME280;50122;56.330;43.838;2022-10-26T21:31:15;101710.91;;;-1.45;76.96
63946;BME280;50122;56.330;43.838;2022-10-26T21:33:44;101716.31;;;-1.38;77.19
63946;BME280;50122;56.330;43.838;2022-10-26T21:36:11;101710.22;;;-1.39;76.65
63946;BME280;50122;56.330;43.838;2022-10-26T21:38:41;101710.22;;;-1.39;76.71
63946;BME280;50122;56.330;43.838;2022-10-26T21:41:10;101704.88;;;-1.45;77.13